createdAt,value
2018-01-11T00:00:04.554Z,5.90
2018-01-11T00:02:33.622Z,6.00
2018-01-11T00:05:02.024Z,6.00
2018-01-11T00:07:31.121Z,6.00
2018-01-11T00:10:00.558Z,5.90
2018-01-11T00:12:28.943Z,6.00
2018-01-11T00:14:57.278Z,6.10
2018-01-11T00:17:25.623Z,6.20
2018-01-11T00:19:54.142Z,6.20
2018-01-11T00:22:23.226Z,6.30
2018-01-11T00:24:52.441Z,6.30
2018-01-11T00:27:20.772Z,6.20
2018-01-11T00:29:49.934Z,6.10
2018-01-11T00:32:18.257Z,6.10
2018-01-11T00:34:46.599Z,5.90
2018-01-11T00:37:14.988Z,5.90
2018-01-11T00:39:43.500Z,5.90
2018-01-11T00:42:13.518Z,6.00
2018-01-11T00:44:41.813Z,6.00
2018-01-11T00:47:11.725Z,6.10
2018-01-11T00:49:40.783Z,6.00
2018-01-11T00:52:10.224Z,6.00
2018-01-11T00:54:40.491Z,6.00
2018-01-11T00:57:09.004Z,6.00
2018-01-11T00:59:39.550Z,6.00
2018-01-11T01:02:08.696Z,5.90
2018-01-11T01:04:37.258Z,5.80
2018-01-11T01:07:06.734Z,6.00
2018-01-11T01:09:36.796Z,6.10
2018-01-11T01:12:05.115Z,6.10
2018-01-11T01:14:34.568Z,6.20
2018-01-11T01:17:03.710Z,6.30
2018-01-11T01:19:33.021Z,6.30
2018-01-11T01:22:02.880Z,6.10
2018-01-11T01:24:32.268Z,6.10
2018-01-11T01:27:00.614Z,6.20
2018-01-11T01:29:28.975Z,6.20
2018-01-11T01:31:57.952Z,6.20
2018-01-11T01:34:26.300Z,6.30
2018-01-11T01:36:56.503Z,6.40
2018-01-11T01:39:25.291Z,6.40
2018-01-11T01:41:54.567Z,6.30
2018-01-11T01:44:22.878Z,6.30
2018-01-11T01:46:52.015Z,6.30
2018-01-11T01:49:20.394Z,6.10
2018-01-11T01:51:48.780Z,6.10
2018-01-11T01:54:17.366Z,6.10
2018-01-11T01:56:48.659Z,6.30
2018-01-11T01:59:18.942Z,6.30
2018-01-11T02:01:47.471Z,6.30
2018-01-11T02:04:16.661Z,6.10
2018-01-11T02:06:45.003Z,6.10
2018-01-11T02:09:15.026Z,6.10
2018-01-11T02:11:44.437Z,6.10
2018-01-11T02:14:13.712Z,6.10
2018-01-11T02:16:44.304Z,6.10
2018-01-11T02:19:13.213Z,6.10
2018-01-11T02:21:43.204Z,6.10
2018-01-11T02:24:11.632Z,6.10
2018-01-11T02:26:41.324Z,6.20
2018-01-11T02:29:12.713Z,6.10
2018-01-11T02:31:43.820Z,5.80
2018-01-11T02:34:12.930Z,5.80
2018-01-11T02:36:41.611Z,5.80
2018-01-11T02:39:10.707Z,5.90
2018-01-11T02:41:39.162Z,5.90
2018-01-11T02:44:08.715Z,5.80
2018-01-11T02:46:37.273Z,5.70
2018-01-11T02:49:06.659Z,5.80
2018-01-11T02:51:35.993Z,5.90
2018-01-11T02:54:04.477Z,5.90
2018-01-11T02:56:32.926Z,6.00
2018-01-11T02:59:05.197Z,6.10
2018-01-11T03:01:33.711Z,6.10
2018-01-11T03:04:02.109Z,6.10
2018-01-11T03:09:25.629Z,6.00
2018-01-11T03:11:54.242Z,6.00
2018-01-11T03:14:22.700Z,5.90
2018-01-11T03:16:51.214Z,5.70
2018-01-11T03:19:20.345Z,5.80
2018-01-11T03:21:48.691Z,5.80
2018-01-11T03:24:17.008Z,5.90
2018-01-11T03:26:45.671Z,5.90
2018-01-11T03:29:14.043Z,5.70
2018-01-11T03:31:42.424Z,5.80
2018-01-11T03:34:11.545Z,6.00
2018-01-11T03:36:40.005Z,5.90
2018-01-11T03:39:09.277Z,6.00
2018-01-11T03:41:37.657Z,6.00
2018-01-11T03:44:10.084Z,5.90
2018-01-11T03:46:39.895Z,5.80
2018-01-11T03:49:10.397Z,5.90
2018-01-11T03:51:39.658Z,6.00
2018-01-11T03:54:11.368Z,6.10
2018-01-11T03:56:40.668Z,6.10
2018-01-11T03:59:10.810Z,6.10
2018-01-11T04:01:39.131Z,6.10
2018-01-11T04:04:08.344Z,6.00
2018-01-11T04:06:37.240Z,6.00
2018-01-11T04:09:05.568Z,6.00
2018-01-11T04:11:33.910Z,6.10
2018-01-11T04:14:04.900Z,6.20
2018-01-11T04:16:33.161Z,6.20
2018-01-11T04:19:02.461Z,6.20
2018-01-11T04:21:31.491Z,6.30
2018-01-11T04:23:59.947Z,6.30
2018-01-11T04:26:29.962Z,6.30
2018-01-11T04:29:00.142Z,6.40
2018-01-11T04:31:29.638Z,6.40
2018-01-11T04:33:57.996Z,6.40
2018-01-11T04:36:26.277Z,6.20
2018-01-11T04:38:54.614Z,6.20
2018-01-11T04:41:23.056Z,6.20
2018-01-11T04:43:52.486Z,6.10
2018-01-11T04:46:20.856Z,6.00
2018-01-11T04:48:50.028Z,5.90
2018-01-11T04:51:19.033Z,5.90
2018-01-11T04:53:49.327Z,5.90
2018-01-11T04:56:17.670Z,6.00
2018-01-11T04:58:46.026Z,6.00
2018-01-11T05:01:15.456Z,5.90
2018-01-11T05:03:43.786Z,5.90
2018-01-11T05:06:13.023Z,5.90
2018-01-11T05:08:43.715Z,6.00
2018-01-11T05:11:13.654Z,6.10
2018-01-11T05:13:42.151Z,6.10
2018-01-11T05:16:11.242Z,6.00
2018-01-11T05:18:39.519Z,5.90
2018-01-11T05:21:08.651Z,6.00
2018-01-11T05:23:37.033Z,6.00
2018-01-11T05:26:05.562Z,6.00
2018-01-11T05:28:33.983Z,6.10
2018-01-11T05:31:03.228Z,6.10
2018-01-11T05:33:31.522Z,6.10
2018-01-11T05:36:00.623Z,6.00
2018-01-11T05:38:29.318Z,5.90
2018-01-11T05:40:57.663Z,5.80
2018-01-11T05:43:25.980Z,5.90
2018-01-11T05:45:56.161Z,6.10
2018-01-11T05:48:24.538Z,6.10
2018-01-11T05:50:54.453Z,6.20
2018-01-11T05:53:23.367Z,6.20
2018-01-11T05:55:52.460Z,6.20
2018-01-11T05:58:22.791Z,6.20
2018-01-11T06:00:51.223Z,6.20
2018-01-11T06:03:19.539Z,6.30
2018-01-11T06:05:47.875Z,6.30
2018-01-11T06:08:16.198Z,6.20
2018-01-11T06:10:45.356Z,6.20
2018-01-11T06:13:13.692Z,6.10
2018-01-11T06:15:42.069Z,6.10
2018-01-11T06:18:10.343Z,6.20
2018-01-11T06:20:38.825Z,6.20
2018-01-11T06:23:08.011Z,6.10
2018-01-11T06:25:36.347Z,6.10
2018-01-11T06:28:04.783Z,6.10
2018-01-11T06:30:34.711Z,6.20
2018-01-11T06:33:03.300Z,6.20
2018-01-11T06:35:31.626Z,6.30
2018-01-11T06:37:59.877Z,6.30
2018-01-11T06:40:28.279Z,6.40
2018-01-11T06:42:56.712Z,6.40
2018-01-11T06:45:26.541Z,6.40
2018-01-11T06:48:05.544Z,6.50
2018-01-11T06:50:33.948Z,6.50
2018-01-11T06:53:02.432Z,6.60
2018-01-11T06:55:31.660Z,6.50
2018-01-11T06:58:02.737Z,6.40
2018-01-11T07:00:31.053Z,6.40
2018-01-11T07:03:00.885Z,6.40
2018-01-11T07:05:29.265Z,6.40
2018-01-11T07:07:57.761Z,6.40
2018-01-11T07:10:26.058Z,6.40
2018-01-11T07:12:54.557Z,6.50
2018-01-11T07:15:22.865Z,6.50
2018-01-11T07:17:52.906Z,6.50
2018-01-11T07:20:23.192Z,6.50
2018-01-11T07:22:51.451Z,6.50
2018-01-11T07:25:19.971Z,6.50
2018-01-11T07:27:48.539Z,6.50
2018-01-11T07:30:17.127Z,6.50
2018-01-11T07:32:46.368Z,6.50
2018-01-11T07:35:14.954Z,6.50
2018-01-11T07:37:48.238Z,6.60
2018-01-11T07:40:16.628Z,6.60
2018-01-11T07:42:45.139Z,6.70
2018-01-11T07:45:13.426Z,6.70
2018-01-11T07:47:41.856Z,6.70
2018-01-11T07:50:12.400Z,6.60
2018-01-11T07:52:42.170Z,6.50
2018-01-11T07:55:10.823Z,6.50
2018-01-11T07:57:40.003Z,6.50
2018-01-11T08:00:08.492Z,6.50
2018-01-11T08:02:36.888Z,6.50
2018-01-11T08:05:06.114Z,6.60
2018-01-11T08:07:35.303Z,6.50
2018-01-11T08:10:03.677Z,6.50
2018-01-11T08:12:33.578Z,6.50
2018-01-11T08:15:02.294Z,6.50
2018-01-11T08:17:30.641Z,6.50
2018-01-11T08:19:59.889Z,6.50
2018-01-11T08:22:28.817Z,6.60
2018-01-11T08:24:59.415Z,6.60
2018-01-11T08:27:27.767Z,6.60
2018-01-11T08:29:56.110Z,6.50
2018-01-11T08:32:24.550Z,6.60
2018-01-11T08:34:52.962Z,6.70
2018-01-11T08:37:21.500Z,6.70
2018-01-11T08:39:49.811Z,6.70
2018-01-11T08:42:29.726Z,6.70
2018-01-11T08:44:58.958Z,6.70
2018-01-11T08:47:29.612Z,6.70
2018-01-11T08:49:58.126Z,6.70
2018-01-11T08:52:28.226Z,6.80
2018-01-11T08:54:57.176Z,6.80
2018-01-11T08:57:26.291Z,6.80
2018-01-11T08:59:57.032Z,6.80
2018-01-11T09:02:25.681Z,6.90
2018-01-11T09:04:56.232Z,7.00
2018-01-11T09:07:24.565Z,7.10
2018-01-11T09:09:53.049Z,7.10
2018-01-11T09:12:31.421Z,7.10
2018-01-11T09:15:00.918Z,7.10
2018-01-11T09:17:30.254Z,7.20
2018-01-11T09:19:59.426Z,7.20
2018-01-11T09:22:27.852Z,7.30
2018-01-11T09:25:00.265Z,7.20
2018-01-11T09:27:28.662Z,7.30
2018-01-11T09:29:57.956Z,7.20
2018-01-11T09:32:28.582Z,7.30
2018-01-11T09:34:58.128Z,7.20
2018-01-11T09:37:36.735Z,7.20
2018-01-11T09:43:37.222Z,7.40
2018-01-11T09:46:05.658Z,7.50
2018-01-11T09:48:34.892Z,7.60
2018-01-11T09:51:06.172Z,7.60
2018-01-11T09:53:34.512Z,7.60
2018-01-11T09:56:02.941Z,7.70
2018-01-11T09:58:31.413Z,7.70
2018-01-11T10:04:00.542Z,7.40
2018-01-11T10:06:28.831Z,7.40
2018-01-11T10:08:57.864Z,7.40
2018-01-11T10:11:27.658Z,7.40
2018-01-11T10:13:56.823Z,7.40
2018-01-11T10:16:26.220Z,7.40
2018-01-11T10:18:54.746Z,7.50
2018-01-11T10:21:23.064Z,7.50
2018-01-11T10:24:04.207Z,7.60
2018-01-11T10:26:33.322Z,7.80
2018-01-11T10:29:01.723Z,7.80
2018-01-11T10:31:30.047Z,7.90
2018-01-11T10:33:59.301Z,7.90
2018-01-11T10:36:27.767Z,7.80
2018-01-11T10:39:00.550Z,7.90
2018-01-11T10:41:29.751Z,8.00
2018-01-11T10:43:58.547Z,8.00
2018-01-11T10:46:26.824Z,8.00
2018-01-11T10:48:55.130Z,8.00
2018-01-11T10:51:23.560Z,7.90
2018-01-11T10:53:51.922Z,7.90
2018-01-11T10:56:21.779Z,7.90
2018-01-11T10:58:51.050Z,7.90
2018-01-11T11:01:25.134Z,7.90
2018-01-11T11:03:54.010Z,7.90
2018-01-11T11:06:23.368Z,7.90
2018-01-11T11:08:52.386Z,7.90
2018-01-11T11:11:20.734Z,7.90
2018-01-11T11:13:49.885Z,8.00
2018-01-11T11:16:18.258Z,8.00
2018-01-11T11:18:46.581Z,8.10
2018-01-11T11:21:15.098Z,8.20
2018-01-11T11:23:43.414Z,8.10
2018-01-11T11:26:11.843Z,8.10
2018-01-11T11:28:40.267Z,8.10
2018-01-11T11:31:08.755Z,8.20
2018-01-11T11:33:37.086Z,8.20
2018-01-11T11:36:05.561Z,8.10
2018-01-11T11:38:34.043Z,8.10
2018-01-11T11:41:03.162Z,8.00
2018-01-11T11:43:31.466Z,7.90
2018-01-11T11:45:59.980Z,7.80
2018-01-11T11:48:28.433Z,7.80
2018-01-11T11:50:56.951Z,7.80
2018-01-11T11:53:25.615Z,7.90
2018-01-11T11:55:54.903Z,8.00
2018-01-11T11:58:23.241Z,8.00
2018-01-11T12:00:51.613Z,8.10
2018-01-11T12:03:20.102Z,8.10
2018-01-11T12:05:48.430Z,8.10
2018-01-11T12:08:17.622Z,8.20
2018-01-11T12:10:46.464Z,8.10
2018-01-11T12:13:14.842Z,8.30
2018-01-11T12:15:43.422Z,8.30
2018-01-11T12:18:11.749Z,8.40
2018-01-11T12:20:40.586Z,8.50
2018-01-11T12:23:09.109Z,8.50
2018-01-11T12:25:38.392Z,8.50
2018-01-11T12:28:06.771Z,8.60
2018-01-11T12:30:35.071Z,8.50
2018-01-11T12:33:06.951Z,8.40
2018-01-11T12:35:36.145Z,8.40
2018-01-11T12:38:04.505Z,8.40
2018-01-11T12:40:33.609Z,8.50
2018-01-11T12:43:02.092Z,8.60
2018-01-11T12:45:30.612Z,8.50
2018-01-11T12:48:00.776Z,8.60
2018-01-11T12:50:29.144Z,8.60
2018-01-11T12:52:57.781Z,8.70
2018-01-11T12:55:26.145Z,8.70
2018-01-11T12:57:54.682Z,8.70
2018-01-11T13:00:23.004Z,8.70
2018-01-11T13:02:51.458Z,8.80
2018-01-11T13:05:20.054Z,8.90
2018-01-11T13:07:48.667Z,9.00
2018-01-11T13:10:17.153Z,9.00
2018-01-11T13:12:45.583Z,9.10
2018-01-11T13:15:14.679Z,9.10
2018-01-11T13:17:43.055Z,9.10
2018-01-11T13:20:11.485Z,9.10
2018-01-11T13:22:40.810Z,9.00
2018-01-11T13:25:10.034Z,8.90
2018-01-11T13:27:39.433Z,8.90
2018-01-11T13:30:08.822Z,8.90
2018-01-11T13:32:38.000Z,8.90
2018-01-11T13:35:07.167Z,8.90
2018-01-11T13:37:35.422Z,8.90
2018-01-11T13:40:04.547Z,8.50
2018-01-11T13:42:32.854Z,8.50
2018-01-11T13:45:01.350Z,8.50
2018-01-11T13:47:29.845Z,8.40
2018-01-11T13:49:58.309Z,8.40
2018-01-11T13:52:26.653Z,8.40
2018-01-11T13:54:54.973Z,8.40
2018-01-11T13:57:23.460Z,8.30
2018-01-11T13:59:52.786Z,8.30
2018-01-11T14:02:22.008Z,8.30
2018-01-11T14:04:50.442Z,8.30
2018-01-11T14:07:19.854Z,8.30
2018-01-11T14:09:48.362Z,8.30
2018-01-11T14:12:17.128Z,8.30
2018-01-11T14:14:46.271Z,8.50
2018-01-11T14:17:14.652Z,8.50
2018-01-11T14:19:42.996Z,8.50
2018-01-11T14:22:11.516Z,8.60
2018-01-11T14:24:40.028Z,8.50
2018-01-11T14:27:08.813Z,8.40
2018-01-11T14:29:47.241Z,8.40
2018-01-11T14:32:18.354Z,8.40
2018-01-11T14:34:46.664Z,8.50
2018-01-11T14:37:15.117Z,8.50
2018-01-11T14:39:45.650Z,8.50
2018-01-11T14:42:13.947Z,8.50
2018-01-11T14:44:42.222Z,8.30
2018-01-11T14:47:10.534Z,8.30
2018-01-11T14:49:39.694Z,8.00
2018-01-11T14:52:08.169Z,8.00
2018-01-11T14:54:36.483Z,8.00
2018-01-11T14:57:05.541Z,8.00
2018-01-11T14:59:33.822Z,8.00
2018-01-11T15:02:02.174Z,7.90
2018-01-11T15:04:30.435Z,7.90
2018-01-11T15:06:59.845Z,7.90
2018-01-11T15:09:28.168Z,7.80
2018-01-11T15:11:58.493Z,7.80
2018-01-11T15:14:26.920Z,7.80
2018-01-11T15:16:55.588Z,7.80
2018-01-11T15:19:24.561Z,7.80
2018-01-11T15:21:52.971Z,7.80
2018-01-11T15:24:21.241Z,7.80
2018-01-11T15:26:49.504Z,7.80
2018-01-11T15:29:18.499Z,7.80
2018-01-11T15:31:47.565Z,7.80
2018-01-11T15:34:15.801Z,7.80
2018-01-11T15:36:44.087Z,7.90
2018-01-11T15:39:13.135Z,7.90
2018-01-11T15:41:41.438Z,7.90
2018-01-11T15:44:09.679Z,7.90
2018-01-11T15:46:37.958Z,7.90
2018-01-11T15:49:06.248Z,7.80
2018-01-11T15:51:36.032Z,7.70
2018-01-11T15:54:04.321Z,7.70
2018-01-11T15:56:32.910Z,7.80
2018-01-11T15:59:01.215Z,7.90
2018-01-11T16:01:29.427Z,8.00
2018-01-11T16:03:57.724Z,8.00
2018-01-11T16:06:26.050Z,8.00
2018-01-11T16:08:54.310Z,8.00
2018-01-11T16:11:24.208Z,8.00
2018-01-11T16:13:52.473Z,8.00
2018-01-11T16:16:20.755Z,8.00
2018-01-11T16:18:49.004Z,8.00
2018-01-11T16:21:17.266Z,7.90
2018-01-11T16:23:46.384Z,8.00
2018-01-11T16:26:14.661Z,8.00
2018-01-11T16:28:43.657Z,8.00
2018-01-11T16:31:11.909Z,8.00
2018-01-11T16:33:40.198Z,8.00
2018-01-11T16:36:08.495Z,8.00
2018-01-11T16:38:36.778Z,7.90
2018-01-11T16:41:05.964Z,7.80
2018-01-11T16:43:34.248Z,7.70
2018-01-11T16:46:02.548Z,7.60
2018-01-11T16:48:30.852Z,7.60
2018-01-11T16:50:59.197Z,7.50
2018-01-11T16:53:27.612Z,7.40
2018-01-11T16:55:55.903Z,7.50
2018-01-11T16:58:24.915Z,7.50
2018-01-11T17:00:53.438Z,7.50
2018-01-11T17:03:21.730Z,7.50
2018-01-11T17:05:50.807Z,7.60
2018-01-11T17:08:19.103Z,7.50
2018-01-11T17:10:47.342Z,7.40
2018-01-11T17:13:15.641Z,7.40
2018-01-11T17:15:43.876Z,7.40
2018-01-11T17:18:12.986Z,7.50
2018-01-11T17:20:41.293Z,7.50
2018-01-11T17:23:09.541Z,7.60
2018-01-11T17:25:38.698Z,7.50
2018-01-11T17:28:06.948Z,7.50
2018-01-11T17:30:35.270Z,7.50
2018-01-11T17:33:04.668Z,7.50
2018-01-11T17:35:33.708Z,7.50
2018-01-11T17:38:01.996Z,7.50
2018-01-11T17:40:30.301Z,7.60
2018-01-11T17:42:58.572Z,7.60
2018-01-11T17:45:27.679Z,7.50
2018-01-11T17:47:55.986Z,7.50
2018-01-11T17:50:25.044Z,7.60
2018-01-11T17:52:53.338Z,7.60
2018-01-11T17:55:22.679Z,7.60
2018-01-11T17:57:51.740Z,7.60
2018-01-11T18:00:19.997Z,7.50
2018-01-11T18:02:48.246Z,7.50
2018-01-11T18:05:16.512Z,7.40
2018-01-11T18:07:44.884Z,7.40
2018-01-11T18:10:13.923Z,7.50
2018-01-11T18:12:42.543Z,7.40
2018-01-11T18:15:11.591Z,7.60
2018-01-11T18:17:39.856Z,7.60
2018-01-11T18:20:08.152Z,7.60
2018-01-11T18:22:36.409Z,7.50
2018-01-11T18:25:04.683Z,7.50
2018-01-11T18:27:32.968Z,7.40
2018-01-11T18:30:01.335Z,7.40
2018-01-11T18:32:29.872Z,7.40
2018-01-11T18:34:58.146Z,7.30
2018-01-11T18:37:26.479Z,7.40
2018-01-11T18:39:54.929Z,7.30
2018-01-11T18:42:23.183Z,7.30
2018-01-11T18:44:51.541Z,7.40
2018-01-11T18:47:19.792Z,7.50
2018-01-11T18:49:49.009Z,7.60
2018-01-11T18:52:17.314Z,7.60
2018-01-11T18:54:45.640Z,7.60
2018-01-11T18:57:14.672Z,7.70
2018-01-11T18:59:43.077Z,7.70
2018-01-11T19:02:11.337Z,7.70
2018-01-11T19:04:41.150Z,7.60
2018-01-11T19:07:09.461Z,7.50
2018-01-11T19:09:37.998Z,7.50
2018-01-11T19:12:07.611Z,7.60
2018-01-11T19:14:36.004Z,7.60
2018-01-11T19:17:04.295Z,7.70
2018-01-11T19:19:32.612Z,7.60
2018-01-11T19:22:00.952Z,7.50
2018-01-11T19:24:29.515Z,7.50
2018-01-11T19:26:57.857Z,7.40
2018-01-11T19:29:26.270Z,7.40
2018-01-11T19:31:54.680Z,7.30
2018-01-11T19:34:23.008Z,7.20
2018-01-11T19:36:51.858Z,7.20
2018-01-11T19:39:20.896Z,7.20
2018-01-11T19:41:49.170Z,7.20
2018-01-11T19:44:17.509Z,7.20
2018-01-11T19:46:45.783Z,7.10
2018-01-11T19:49:14.149Z,7.10
2018-01-11T19:51:42.429Z,7.00
2018-01-11T19:54:10.691Z,7.00
2018-01-11T19:56:38.977Z,7.00
2018-01-11T19:59:07.248Z,7.00
2018-01-11T20:01:36.402Z,7.00
2018-01-11T20:04:04.912Z,7.00
2018-01-11T20:06:34.078Z,7.00
2018-01-11T20:09:03.157Z,7.00
2018-01-11T20:11:32.241Z,7.10
2018-01-11T20:14:00.513Z,7.00
2018-01-11T20:16:29.698Z,7.20
2018-01-11T20:18:58.007Z,7.10
2018-01-11T20:21:26.492Z,7.10
2018-01-11T20:23:56.305Z,7.10
2018-01-11T20:26:26.309Z,7.20
2018-01-11T20:28:54.591Z,7.10
2018-01-11T20:31:22.913Z,7.10
2018-01-11T20:33:51.171Z,7.20
2018-01-11T20:36:19.499Z,7.20
2018-01-11T20:38:47.754Z,7.20
2018-01-11T20:41:16.694Z,7.20
2018-01-11T20:43:44.983Z,7.10
2018-01-11T20:46:14.017Z,7.30
2018-01-11T20:48:42.896Z,7.30
2018-01-11T20:51:11.312Z,7.40
2018-01-11T20:53:39.633Z,7.40
2018-01-11T20:56:07.942Z,7.30
2018-01-11T20:58:36.194Z,7.10
2018-01-11T21:01:04.534Z,7.10
2018-01-11T21:03:33.192Z,7.00
2018-01-11T21:06:01.459Z,7.00
2018-01-11T21:08:29.788Z,7.10
2018-01-11T21:10:58.068Z,7.10
2018-01-11T21:13:26.294Z,7.00
2018-01-11T21:15:54.596Z,6.90
2018-01-11T21:18:22.896Z,6.90
2018-01-11T21:20:51.167Z,6.90
2018-01-11T21:23:19.449Z,6.90
2018-01-11T21:25:47.746Z,6.80
2018-01-11T21:28:16.122Z,6.80
2018-01-11T21:30:44.367Z,6.90
2018-01-11T21:33:12.651Z,6.80
2018-01-11T21:35:40.982Z,6.90
2018-01-11T21:38:09.267Z,6.90
2018-01-11T21:40:37.557Z,6.90
2018-01-11T21:43:05.812Z,6.90
2018-01-11T21:45:34.091Z,7.00
2018-01-11T21:48:03.727Z,7.00
2018-01-11T21:50:32.005Z,7.00
2018-01-11T21:53:00.314Z,7.00
2018-01-11T21:55:28.595Z,7.00
2018-01-11T21:57:56.878Z,6.90
2018-01-11T22:00:25.178Z,6.90
2018-01-11T22:02:54.178Z,6.90
2018-01-11T22:05:22.481Z,6.80
2018-01-11T22:07:50.818Z,6.90
2018-01-11T22:10:19.068Z,7.00
2018-01-11T22:12:47.367Z,7.00
2018-01-11T22:15:15.639Z,7.00
2018-01-11T22:17:43.914Z,7.00
2018-01-11T22:20:12.156Z,7.00
2018-01-11T22:22:40.454Z,7.00
2018-01-11T22:25:08.787Z,7.00
2018-01-11T22:27:37.039Z,7.00
2018-01-11T22:30:05.314Z,7.00
2018-01-11T22:32:34.341Z,7.10
2018-01-11T22:35:02.631Z,7.10
2018-01-11T22:37:30.915Z,7.10
2018-01-11T22:39:59.180Z,7.10
2018-01-11T22:42:27.469Z,7.10
2018-01-11T22:44:55.739Z,7.20
2018-01-11T22:47:24.328Z,7.20
2018-01-11T22:49:52.578Z,7.10
2018-01-11T22:52:20.855Z,7.10
2018-01-11T22:54:50.241Z,7.00
2018-01-11T22:57:18.492Z,7.00
2018-01-11T22:59:47.359Z,7.00
2018-01-11T23:02:15.580Z,7.00
2018-01-11T23:04:44.638Z,6.90
2018-01-11T23:07:12.921Z,6.90
2018-01-11T23:09:41.148Z,6.90
2018-01-11T23:12:09.410Z,7.00
2018-01-11T23:14:38.478Z,7.10
2018-01-11T23:17:06.693Z,7.10
2018-01-11T23:19:35.198Z,7.10
2018-01-11T23:22:03.501Z,7.00
2018-01-11T23:24:31.785Z,6.90
2018-01-11T23:27:00.039Z,6.80
2018-01-11T23:29:28.279Z,6.70
2018-01-11T23:31:56.542Z,6.80
2018-01-11T23:34:24.805Z,6.70
2018-01-11T23:36:53.109Z,6.70
2018-01-11T23:39:22.128Z,6.70
2018-01-11T23:41:50.422Z,6.70
2018-01-11T23:44:18.694Z,6.80
2018-01-11T23:46:46.934Z,6.70
2018-01-11T23:49:16.040Z,6.70
2018-01-11T23:51:44.332Z,6.80
2018-01-11T23:54:13.985Z,6.80
2018-01-11T23:56:42.374Z,6.80
2018-01-11T23:59:10.658Z,6.80
